LiveATC.Net - Listen to live air traffic control over the Internet!


ICAO: TBPB  IATA: BGI   Airport: Grantley Adams International Airport
City: Bridgetown
Country: Barbados   Continent: North America
TBPB METAR Weather: TBPB 161600Z 06017KT 9999 VCSH SCT018 32/26 Q1014 N
TBPB ADS-B Flight Tracking  (ADSBExchange)
TBPB Flight Activity (FlightAware)
TBPB Webcam:  (Airport Webcams) 

TBPB Gnd/Twr/Radar/Center
Feed Status: UP   Listeners: 1
Listen in your browser - HTML5 player (in browser, HTML5)
Click here to listen with your own player (launches your MP3 player)
Archive Access: TBPB Gnd/Twr/Radar/Center
FacilityFrequency
Adams Approach/Departure128.850
Adams Approach/Departure129.350
Adams Ground121.900
Adams Tower118.700
Piarco Center123.700

NOTICE

Unauthorized use prohibited. See LiveATC.net Terms of Service


Airport/ARTCC Code
Frequency Search
(e.g., 124.400, 128.75)
Site-wide search
 


Browse Feeds
Top 50 Feeds
HF Oceanic Feeds
Coverage Map
Bad Weather Areas

LiveATC FAQ

Increase Coverage

Contact LiveATC.net
Press Inquiries

LiveATC on iPhone
LiveATC on Android

LiveATC Mobile
(Mobile browser)

ATC Audio Archives
Interesting Recordings

LiveATC Forums


Home Page
About LiveATC.net


Terms of Use
Privacy Policy

AIRMETs/SIGMETs

FAA Airport Status
NAS Status
Arrival Demand


Server Software By:
Icecast.org
Liquidsoap